Owensboro Daviess County Airport Owensboro US
ICAO: KOWB
IATA: OWB
Category: Medium
Scheduled Services: Yes

Elevation: 407 ft
TransAlt. 18000 ft.

Airport Communications:
EVANSVILLE APP/DEP:126.4
CTAF:120.7
GND:121.7
LOUISVILLE RDO:108.6
TWR:120.7
UNICOM:122.95

KOWB Zoom In..

If you have problems with the map follow the link
https://www.worldairports.se/pages/airport.php?
ICAO=KOWB

Runways:

(A) RW 06 length 5000 ft width 100 ft
---- / hdg 56

(B) RW 18 length 8000 ft width 150 ft
---- / hdg 182

(C) RW 24 length 5000 ft width 100 ft
---- / hdg 236

(D) RW 36 length 8000 ft width 150 ft
ILS 111.50 / hdg 2

Location; KOWB
Day. 19 / Time. 21.56 Zulu
* Altimeter: 29.81
* Temperature: 27° c. 80.6°f.
* Wind from: 230° Speed 16 kn with Gusts up to 23 kn.
Dewpoint: 19° c.
Visibility: 10 Statute Miles.
Clouds: Broken 3900 ft.

KOWB 192156Z 23016G23KT 10SM BKN039 27/19 A2981 RMK AO2 SLP100 T02670194


Wind From 230°
Speed 16 kn.

 
 
jpsmedia.com for Web Design worldairports.se 2019   terms of use